createdAt,value
2022-11-13T00:05:02.977Z,99.90
2022-11-13T01:09:09.862Z,99.90
2022-11-13T01:21:27.434Z,99.90
2022-11-13T01:23:56.303Z,99.90
2022-11-13T01:26:28.825Z,99.90
2022-11-13T01:28:56.665Z,99.90
2022-11-13T01:31:26.737Z,99.90
2022-11-13T01:33:53.508Z,99.90
2022-11-13T01:36:26.407Z,99.90
2022-11-13T01:38:53.901Z,99.90
2022-11-13T01:41:25.393Z,99.90
2022-11-13T01:43:53.294Z,99.90
2022-11-13T01:46:28.887Z,99.90
2022-11-13T01:49:16.531Z,99.90
2022-11-13T01:52:05.962Z,99.90
2022-11-13T01:54:37.312Z,99.90
2022-11-13T01:57:05.410Z,99.90
2022-11-13T01:59:37.586Z,99.90
2022-11-13T02:04:33.087Z,99.90
2022-11-13T02:07:03.591Z,99.90
2022-11-13T02:09:36.631Z,99.90
2022-11-13T02:12:05.878Z,99.90
2022-11-13T02:14:33.388Z,99.90
2022-11-13T02:17:04.293Z,99.90
2022-11-13T02:19:43.256Z,99.90
2022-11-13T02:22:33.588Z,99.90
2022-11-13T02:27:39.902Z,99.90
2022-11-13T02:30:18.104Z,99.90
2022-11-13T02:32:52.925Z,99.90
2022-11-13T02:35:29.569Z,99.90
2022-11-13T02:38:00.265Z,99.90
2022-11-13T02:40:27.748Z,99.90
2022-11-13T02:42:54.896Z,99.90
2022-11-13T02:48:01.779Z,99.90
2022-11-13T02:50:38.888Z,99.90
2022-11-13T02:53:06.466Z,99.90
2022-11-13T02:55:33.417Z,99.90
2022-11-13T03:03:12.973Z,99.90
2022-11-13T03:06:00.426Z,99.90
2022-11-13T03:08:27.908Z,99.90
2022-11-13T03:10:55.478Z,99.90
2022-11-13T03:16:16.083Z,99.90
2022-11-13T03:18:42.949Z,99.90
2022-11-13T03:21:16.407Z,99.90
2022-11-13T03:23:54.255Z,99.90
2022-11-13T03:28:48.118Z,99.90
2022-11-13T03:33:42.236Z,99.90
2022-11-13T03:41:03.801Z,99.90
2022-11-13T03:48:31.389Z,99.90
2022-11-13T03:53:26.160Z,99.90
2022-11-13T03:55:54.306Z,99.90
2022-11-13T04:00:48.800Z,99.90
2022-11-13T04:08:35.797Z,99.90
2022-11-13T04:11:13.326Z,99.90
2022-11-13T04:13:40.479Z,99.90
2022-11-13T04:16:07.485Z,99.90
2022-11-13T04:18:44.040Z,99.90
2022-11-13T04:31:00.139Z,99.90
2022-11-13T04:38:21.250Z,99.90
2022-11-13T04:48:33.424Z,99.90
2022-11-13T04:56:00.467Z,99.90
2022-11-13T04:58:27.493Z,99.90
2022-11-13T05:10:43.638Z,99.90
2022-11-13T05:13:23.117Z,99.90
2022-11-13T05:16:12.607Z,99.90
2022-11-13T05:18:39.820Z,99.90
2022-11-13T05:21:08.440Z,99.90
2022-11-13T05:23:38.900Z,99.90
2022-11-13T05:26:08.453Z,99.90
2022-11-13T05:28:47.830Z,99.90
2022-11-13T05:31:16.228Z,99.90
2022-11-13T05:33:46.415Z,99.90
2022-11-13T05:36:15.331Z,99.90
2022-11-13T05:38:52.116Z,99.90
2022-11-13T05:41:23.299Z,99.90
2022-11-13T05:43:59.997Z,99.90
2022-11-13T05:46:35.960Z,99.90
2022-11-13T05:49:14.591Z,99.90
2022-11-13T05:54:18.015Z,99.90
2022-11-13T06:02:05.474Z,99.90
2022-11-13T06:14:30.400Z,99.90
2022-11-13T06:19:24.348Z,99.90
2022-11-13T06:21:51.111Z,99.90
2022-11-13T06:24:17.800Z,99.90
2022-11-13T06:26:44.517Z,99.90
2022-11-13T06:29:12.870Z,99.90
2022-11-13T06:36:36.563Z,99.90
2022-11-13T06:39:07.269Z,99.90
2022-11-13T06:41:40.338Z,99.90
2022-11-13T06:51:30.695Z,99.90
2022-11-13T06:53:58.158Z,99.90
2022-11-13T06:56:34.711Z,99.90
2022-11-13T07:01:50.912Z,99.90
2022-11-13T07:14:20.044Z,99.90
2022-11-13T07:24:28.611Z,99.90
2022-11-13T07:26:55.719Z,99.90
2022-11-13T07:29:22.918Z,99.80
2022-11-13T07:36:53.111Z,98.20
2022-11-13T07:41:47.841Z,98.50
2022-11-13T07:47:01.866Z,98.00
2022-11-13T07:54:22.849Z,90.80
2022-11-13T07:59:17.312Z,86.90
2022-11-13T08:04:11.167Z,84.50
2022-11-13T08:06:38.178Z,83.40
2022-11-13T08:09:11.093Z,82.40
2022-11-13T08:14:14.676Z,81.60
2022-11-13T08:16:41.445Z,81.70
2022-11-13T08:19:21.040Z,80.80
2022-11-13T08:21:48.264Z,78.80
2022-11-13T08:24:26.871Z,77.30
2022-11-13T08:26:53.589Z,76.40
2022-11-13T08:31:47.431Z,74.50
2022-11-13T08:34:14.680Z,73.90
2022-11-13T08:36:41.421Z,73.80
2022-11-13T08:39:09.848Z,74.00
2022-11-13T08:44:17.177Z,73.90
2022-11-13T08:46:43.933Z,73.90
2022-11-13T08:49:12.059Z,74.70
2022-11-13T08:51:48.470Z,74.90
2022-11-13T08:54:15.202Z,76.60
2022-11-13T08:56:57.879Z,80.60
2022-11-13T08:59:27.256Z,82.90
2022-11-13T09:01:59.392Z,81.50
2022-11-13T09:04:26.685Z,79.40
2022-11-13T09:06:53.772Z,79.40
2022-11-13T09:09:21.888Z,76.00
2022-11-13T09:11:58.347Z,75.00
2022-11-13T09:14:35.216Z,74.10
2022-11-13T09:17:15.080Z,73.80
2022-11-13T09:19:41.910Z,73.00
2022-11-13T09:24:45.349Z,72.20
2022-11-13T09:29:39.236Z,69.90
2022-11-13T09:32:06.390Z,68.70
2022-11-13T09:34:33.811Z,66.70
2022-11-13T09:37:00.765Z,65.50
2022-11-13T09:39:28.553Z,64.50
2022-11-13T09:42:13.234Z,63.80
2022-11-13T09:45:02.974Z,62.60
2022-11-13T09:48:05.408Z,61.50
2022-11-13T09:50:33.435Z,61.00
2022-11-13T09:53:00.204Z,59.30
2022-11-13T09:55:40.110Z,59.10
2022-11-13T09:58:11.406Z,58.70
2022-11-13T10:00:39.111Z,58.10
2022-11-13T10:03:59.157Z,58.00
2022-11-13T10:06:31.741Z,58.20
2022-11-13T10:09:29.279Z,57.60
2022-11-13T10:12:07.573Z,56.20
2022-11-13T10:14:46.017Z,54.90
2022-11-13T10:17:32.071Z,54.90
2022-11-13T10:20:02.400Z,55.30
2022-11-13T10:23:00.139Z,54.20
2022-11-13T10:25:31.511Z,54.10
2022-11-13T10:28:43.616Z,53.80
2022-11-13T10:31:03.733Z,54.60
2022-11-13T10:33:30.760Z,53.30
2022-11-13T10:36:16.618Z,52.80
2022-11-13T10:39:09.794Z,52.40
2022-11-13T10:41:50.164Z,52.60
2022-11-13T10:44:26.742Z,52.50
2022-11-13T10:47:10.303Z,53.30
2022-11-13T10:49:43.081Z,53.50
2022-11-13T10:52:22.864Z,54.00
2022-11-13T10:55:27.519Z,52.80
2022-11-13T10:57:59.878Z,52.40
2022-11-13T11:00:49.089Z,52.60
2022-11-13T11:03:24.480Z,52.10
2022-11-13T11:06:18.149Z,51.90
2022-11-13T11:08:45.664Z,51.60
2022-11-13T11:11:43.531Z,52.50
2022-11-13T11:14:22.574Z,52.60
2022-11-13T11:17:00.507Z,51.70
2022-11-13T11:19:31.336Z,52.00
2022-11-13T11:22:31.061Z,52.10
2022-11-13T11:25:22.186Z,53.00
2022-11-13T11:28:12.848Z,53.50
2022-11-13T11:31:08.713Z,54.00
2022-11-13T11:34:11.556Z,53.30
2022-11-13T11:36:53.439Z,53.30
2022-11-13T11:39:36.989Z,53.20
2022-11-13T11:42:28.244Z,53.60
2022-11-13T11:45:30.103Z,53.00
2022-11-13T11:47:58.847Z,54.20
2022-11-13T11:50:48.060Z,55.30
2022-11-13T11:53:48.172Z,55.10
2022-11-13T11:56:23.898Z,54.70
2022-11-13T11:59:04.522Z,54.00
2022-11-13T12:01:50.080Z,53.60
2022-11-13T12:04:28.955Z,53.70
2022-11-13T12:07:33.626Z,54.00
2022-11-13T12:10:37.816Z,54.00
2022-11-13T12:13:32.141Z,54.80
2022-11-13T12:16:05.183Z,54.50
2022-11-13T12:18:37.426Z,54.40
2022-11-13T12:21:19.371Z,55.40
2022-11-13T12:24:01.689Z,55.40
2022-11-13T12:26:42.225Z,55.80
2022-11-13T12:29:56.639Z,55.50
2022-11-13T12:33:04.153Z,54.90
2022-11-13T12:35:31.200Z,56.60
2022-11-13T12:38:32.336Z,55.80
2022-11-13T12:41:38.394Z,57.20
2022-11-13T12:44:24.575Z,58.00
2022-11-13T12:46:53.016Z,57.80
2022-11-13T12:49:23.320Z,58.80
2022-11-13T12:52:18.955Z,58.80
2022-11-13T12:55:23.909Z,61.00
2022-11-13T12:58:30.607Z,60.90
2022-11-13T13:01:12.199Z,61.70
2022-11-13T13:04:05.585Z,62.60
2022-11-13T13:06:57.033Z,63.90
2022-11-13T13:09:37.901Z,64.70
2022-11-13T13:12:39.975Z,65.50
2022-11-13T13:15:27.813Z,65.90
2022-11-13T13:18:06.410Z,66.40
2022-11-13T13:23:31.219Z,67.00
2022-11-13T13:26:18.148Z,67.30
2022-11-13T13:29:19.088Z,67.30
2022-11-13T13:35:17.511Z,68.00
2022-11-13T13:38:02.903Z,68.20
2022-11-13T13:40:58.683Z,68.40
2022-11-13T13:43:31.910Z,68.00
2022-11-13T13:46:26.913Z,67.90
2022-11-13T13:49:09.456Z,67.90
2022-11-13T13:51:51.580Z,67.80
2022-11-13T13:54:26.196Z,67.90
2022-11-13T13:56:54.493Z,68.20
2022-11-13T13:59:32.349Z,68.00
2022-11-13T14:02:01.917Z,68.90
2022-11-13T14:04:33.543Z,68.00
2022-11-13T14:07:02.139Z,68.00
2022-11-13T14:09:32.494Z,69.30
2022-11-13T14:12:09.651Z,69.40
2022-11-13T14:14:40.074Z,69.70
2022-11-13T14:17:26.459Z,70.20
2022-11-13T14:20:03.300Z,70.30
2022-11-13T14:22:42.518Z,70.90
2022-11-13T14:25:39.070Z,72.10
2022-11-13T14:28:42.978Z,74.10
2022-11-13T14:31:12.609Z,74.10
2022-11-13T14:33:45.209Z,75.00
2022-11-13T14:36:29.968Z,76.40
2022-11-13T14:39:24.504Z,76.50
2022-11-13T14:41:56.585Z,77.50
2022-11-13T14:44:52.836Z,78.40
2022-11-13T14:47:37.215Z,79.30
2022-11-13T14:53:08.048Z,79.80
2022-11-13T14:55:38.671Z,80.50
2022-11-13T14:58:14.271Z,80.40
2022-11-13T15:00:40.992Z,80.50
2022-11-13T15:03:07.784Z,81.30
2022-11-13T15:05:34.563Z,81.70
2022-11-13T15:08:12.948Z,82.00
2022-11-13T15:10:43.517Z,82.80
2022-11-13T15:13:22.265Z,83.00
2022-11-13T15:15:49.553Z,83.40
2022-11-13T15:18:19.403Z,83.50
2022-11-13T15:20:53.530Z,84.30
2022-11-13T15:23:25.390Z,84.30
2022-11-13T15:25:52.262Z,84.10
2022-11-13T15:28:37.550Z,84.10
2022-11-13T15:31:16.505Z,84.70
2022-11-13T15:33:43.316Z,85.00
2022-11-13T15:36:10.252Z,85.40
2022-11-13T15:38:49.403Z,85.70
2022-11-13T15:41:19.594Z,86.60
2022-11-13T15:43:54.324Z,87.10
2022-11-13T15:46:24.165Z,87.60
2022-11-13T15:48:55.786Z,88.10
2022-11-13T15:51:58.376Z,88.10
2022-11-13T15:54:25.132Z,88.60
2022-11-13T15:56:57.668Z,88.90
2022-11-13T16:04:56.399Z,90.10
2022-11-13T16:07:31.898Z,91.60
2022-11-13T16:10:05.700Z,92.00
2022-11-13T16:12:45.930Z,91.90
2022-11-13T16:15:15.146Z,92.10
2022-11-13T16:17:45.002Z,92.40
2022-11-13T16:20:27.257Z,93.00
2022-11-13T16:23:03.769Z,93.20
2022-11-13T16:25:30.526Z,93.70
2022-11-13T16:28:16.115Z,94.00
2022-11-13T16:30:53.075Z,94.10
2022-11-13T16:33:32.378Z,94.30
2022-11-13T16:36:15.156Z,94.40
2022-11-13T16:38:42.546Z,94.70
2022-11-13T16:41:11.543Z,95.00
2022-11-13T16:43:38.813Z,95.20
2022-11-13T16:46:34.810Z,95.70
2022-11-13T16:49:01.553Z,96.30
2022-11-13T16:51:37.741Z,96.40
2022-11-13T16:54:14.209Z,96.70
2022-11-13T16:59:10.833Z,97.60
2022-11-13T17:01:44.290Z,97.40
2022-11-13T17:04:14.801Z,97.80
2022-11-13T17:06:41.714Z,97.80
2022-11-13T17:09:09.567Z,98.30
2022-11-13T17:11:48.699Z,98.40
2022-11-13T17:14:27.721Z,99.50
2022-11-13T17:17:05.655Z,99.90
2022-11-13T17:19:32.580Z,99.90
2022-11-13T17:21:59.491Z,99.90
2022-11-13T17:24:32.223Z,99.90
2022-11-13T17:27:02.233Z,99.90
2022-11-13T17:29:29.009Z,99.90
2022-11-13T17:31:55.890Z,99.90
2022-11-13T17:34:22.651Z,99.90
2022-11-13T17:36:49.380Z,99.90
2022-11-13T17:39:16.072Z,99.90
2022-11-13T17:41:50.561Z,99.90
2022-11-13T17:44:27.018Z,99.90
2022-11-13T17:47:03.932Z,99.90
2022-11-13T17:49:40.491Z,99.90
2022-11-13T17:52:07.275Z,99.90
2022-11-13T17:57:11.427Z,99.90
2022-11-13T17:59:50.445Z,99.90
2022-11-13T18:02:35.585Z,99.90
2022-11-13T18:07:31.520Z,99.90
2022-11-13T18:10:07.863Z,99.90
2022-11-13T18:12:44.340Z,99.90
2022-11-13T18:15:11.181Z,99.90
2022-11-13T18:17:38.365Z,99.90
2022-11-13T18:20:09.839Z,99.90
2022-11-13T18:22:46.144Z,99.90
2022-11-13T18:25:22.891Z,99.90
2022-11-13T18:27:49.783Z,99.90
2022-11-13T18:30:17.442Z,99.90
2022-11-13T18:32:50.474Z,99.90
2022-11-13T18:35:17.290Z,99.90
2022-11-13T18:37:53.825Z,99.90
2022-11-13T18:40:30.198Z,99.90
2022-11-13T18:42:56.933Z,99.90
2022-11-13T18:47:51.332Z,99.90
2022-11-13T18:50:27.772Z,99.90
2022-11-13T18:53:04.014Z,99.90
2022-11-13T18:55:30.752Z,99.90
2022-11-13T19:00:24.629Z,99.90
2022-11-13T19:02:51.464Z,99.90
2022-11-13T19:05:18.229Z,99.90
2022-11-13T19:12:45.331Z,99.90
2022-11-13T19:22:55.060Z,99.90
2022-11-13T19:25:34.203Z,99.90
2022-11-13T19:28:26.836Z,99.90
2022-11-13T19:33:37.494Z,99.90
2022-11-13T19:36:13.045Z,99.90
2022-11-13T19:38:40.940Z,99.90
2022-11-13T19:41:08.425Z,99.90
2022-11-13T19:43:37.487Z,99.90
2022-11-13T19:46:32.080Z,99.90
2022-11-13T19:48:58.952Z,99.90
2022-11-13T19:51:37.672Z,99.90
2022-11-13T19:56:31.949Z,99.90
2022-11-13T19:58:58.728Z,99.90
2022-11-13T20:01:27.706Z,99.90
2022-11-13T20:04:00.108Z,99.90
2022-11-13T20:06:28.678Z,99.90
2022-11-13T20:09:03.372Z,99.90
2022-11-13T20:11:42.456Z,99.90
2022-11-13T20:14:11.801Z,99.90
2022-11-13T20:19:05.702Z,99.90
2022-11-13T20:21:32.519Z,99.90
2022-11-13T20:24:00.740Z,99.90
2022-11-13T20:26:28.201Z,99.90
2022-11-13T20:28:55.007Z,99.90
2022-11-13T20:31:31.481Z,99.90
2022-11-13T20:34:07.203Z,99.90
2022-11-13T20:39:24.520Z,99.90
2022-11-13T20:42:00.899Z,99.90
2022-11-13T20:44:27.651Z,99.90
2022-11-13T20:46:54.885Z,99.90
2022-11-13T20:49:24.860Z,99.90
2022-11-13T20:52:07.003Z,99.90
2022-11-13T20:57:01.355Z,99.90
2022-11-13T20:59:40.704Z,99.90
2022-11-13T21:02:08.696Z,99.90
2022-11-13T21:04:35.504Z,99.90
2022-11-13T21:09:35.968Z,99.90
2022-11-13T21:12:02.720Z,99.90
2022-11-13T21:14:36.244Z,99.90
2022-11-13T21:17:03.008Z,99.90
2022-11-13T21:19:29.795Z,99.90
2022-11-13T21:21:56.565Z,99.90
2022-11-13T21:24:23.392Z,99.90
2022-11-13T21:26:56.241Z,99.90
2022-11-13T21:29:35.622Z,99.90
2022-11-13T21:32:02.329Z,99.90
2022-11-13T21:34:29.026Z,99.90
2022-11-13T21:36:55.808Z,99.90
2022-11-13T21:39:31.760Z,99.90
2022-11-13T21:42:08.004Z,99.90
2022-11-13T21:44:47.249Z,99.90
2022-11-13T21:47:14.708Z,99.90
2022-11-13T21:49:41.724Z,99.90
2022-11-13T21:52:08.636Z,99.90
2022-11-13T21:57:03.482Z,99.90
2022-11-13T21:59:31.561Z,99.90
2022-11-13T22:01:59.101Z,99.90
2022-11-13T22:04:26.212Z,99.90
2022-11-13T22:06:59.115Z,99.90
2022-11-13T22:09:25.971Z,99.90
2022-11-13T22:11:53.073Z,99.90
2022-11-13T22:14:19.985Z,99.90
2022-11-13T22:16:47.300Z,99.90
2022-11-13T22:19:27.204Z,99.90
2022-11-13T22:21:56.030Z,99.90
2022-11-13T22:24:29.718Z,99.90
2022-11-13T22:27:02.307Z,99.90
2022-11-13T22:29:28.974Z,99.90
2022-11-13T22:31:55.695Z,99.90
2022-11-13T22:34:22.864Z,99.90
2022-11-13T22:37:09.853Z,99.90
2022-11-13T22:39:48.922Z,99.90
2022-11-13T22:44:55.570Z,99.90
2022-11-13T22:47:23.298Z,99.90
2022-11-13T22:52:17.261Z,99.90
2022-11-13T22:54:43.962Z,99.90
2022-11-13T22:57:22.901Z,99.90
2022-11-13T22:59:49.628Z,99.90
2022-11-13T23:02:16.612Z,99.90
2022-11-13T23:04:43.291Z,99.90
2022-11-13T23:07:20.015Z,99.90
2022-11-13T23:10:07.030Z,99.90
2022-11-13T23:15:13.755Z,99.90
2022-11-13T23:17:52.823Z,99.90
2022-11-13T23:22:46.605Z,99.90
2022-11-13T23:30:08.431Z,99.90
2022-11-13T23:32:35.276Z,99.90
2022-11-13T23:35:20.916Z,99.90
2022-11-13T23:40:28.284Z,99.90
2022-11-13T23:42:55.853Z,99.90
2022-11-13T23:45:33.870Z,99.90
2022-11-13T23:48:07.391Z,99.90
2022-11-13T23:50:34.130Z,99.90
2022-11-13T23:53:00.829Z,99.90
2022-11-13T23:55:40.782Z,99.90
2022-11-13T23:58:11.276Z,99.90
